sensor_id;sensor_type;location;lat;lon;timestamp;P1;durP1;ratioP1;P2;durP2;ratioP2
63201;SDS011;49296;48.188;11.566;2023-04-19T00:02:19;13.45;;;9.07;;
63201;SDS011;49296;48.188;11.566;2023-04-19T00:04:46;14.30;;;8.60;;
63201;SDS011;49296;48.188;11.566;2023-04-19T00:07:13;16.55;;;9.32;;
63201;SDS011;49296;48.188;11.566;2023-04-19T00:09:41;13.15;;;8.80;;
63201;SDS011;49296;48.188;11.566;2023-04-19T00:12:07;16.33;;;9.55;;
63201;SDS011;49296;48.188;11.566;2023-04-19T00:14:34;13.85;;;9.10;;
63201;SDS011;49296;48.188;11.566;2023-04-19T00:17:02;13.05;;;8.40;;
63201;SDS011;49296;48.188;11.566;2023-04-19T00:19:28;13.30;;;9.60;;
63201;SDS011;49296;48.188;11.566;2023-04-19T00:21:55;13.82;;;9.55;;
63201;SDS011;49296;48.188;11.566;2023-04-19T00:24:22;13.20;;;8.13;;
63201;SDS011;49296;48.188;11.566;2023-04-19T00:26:48;15.32;;;8.80;;
63201;SDS011;49296;48.188;11.566;2023-04-19T00:29:15;15.23;;;8.98;;
63201;SDS011;49296;48.188;11.566;2023-04-19T00:31:42;14.50;;;10.15;;
63201;SDS011;49296;48.188;11.566;2023-04-19T00:34:10;14.05;;;9.07;;
63201;SDS011;49296;48.188;11.566;2023-04-19T00:36:36;14.25;;;9.77;;
63201;SDS011;49296;48.188;11.566;2023-04-19T00:39:03;15.43;;;9.88;;
63201;SDS011;49296;48.188;11.566;2023-04-19T00:41:30;14.68;;;9.85;;
63201;SDS011;49296;48.188;11.566;2023-04-19T00:43:57;14.05;;;9.73;;
63201;SDS011;49296;48.188;11.566;2023-04-19T00:46:23;15.52;;;10.18;;
63201;SDS011;49296;48.188;11.566;2023-04-19T00:48:51;15.55;;;9.55;;
63201;SDS011;49296;48.188;11.566;2023-04-19T00:51:19;17.73;;;10.70;;
63201;SDS011;49296;48.188;11.566;2023-04-19T00:53:46;16.75;;;10.50;;
63201;SDS011;49296;48.188;11.566;2023-04-19T00:56:14;14.73;;;9.98;;
63201;SDS011;49296;48.188;11.566;2023-04-19T00:58:42;16.45;;;10.90;;
63201;SDS011;49296;48.188;11.566;2023-04-19T01:01:09;18.15;;;10.52;;
63201;SDS011;49296;48.188;11.566;2023-04-19T01:03:36;16.38;;;10.50;;
63201;SDS011;49296;48.188;11.566;2023-04-19T01:06:03;16.33;;;11.57;;
63201;SDS011;49296;48.188;11.566;2023-04-19T01:08:31;16.40;;;11.07;;
63201;SDS011;49296;48.188;11.566;2023-04-19T01:10:58;18.05;;;10.73;;
63201;SDS011;49296;48.188;11.566;2023-04-19T01:13:24;17.48;;;11.13;;
63201;SDS011;49296;48.188;11.566;2023-04-19T01:15:52;16.33;;;9.68;;
63201;SDS011;49296;48.188;11.566;2023-04-19T01:18:20;14.45;;;10.57;;
63201;SDS011;49296;48.188;11.566;2023-04-19T01:20:48;15.50;;;9.95;;
63201;SDS011;49296;48.188;11.566;2023-04-19T01:23:16;16.23;;;10.85;;
63201;SDS011;49296;48.188;11.566;2023-04-19T01:25:43;16.67;;;10.93;;
63201;SDS011;49296;48.188;11.566;2023-04-19T01:28:10;16.50;;;11.25;;
63201;SDS011;49296;48.188;11.566;2023-04-19T01:30:37;14.98;;;10.40;;
63201;SDS011;49296;48.188;11.566;2023-04-19T01:33:04;16.60;;;11.80;;
63201;SDS011;49296;48.188;11.566;2023-04-19T01:35:30;20.52;;;12.25;;
63201;SDS011;49296;48.188;11.566;2023-04-19T01:37:57;20.42;;;13.05;;
63201;SDS011;49296;48.188;11.566;2023-04-19T01:40:25;16.50;;;11.82;;
63201;SDS011;49296;48.188;11.566;2023-04-19T01:42:52;19.42;;;11.68;;
63201;SDS011;49296;48.188;11.566;2023-04-19T01:45:19;20.65;;;13.25;;
63201;SDS011;49296;48.188;11.566;2023-04-19T01:47:45;20.17;;;12.27;;
63201;SDS011;49296;48.188;11.566;2023-04-19T01:50:12;19.83;;;12.15;;
63201;SDS011;49296;48.188;11.566;2023-04-19T01:52:38;20.42;;;12.52;;
63201;SDS011;49296;48.188;11.566;2023-04-19T01:55:05;18.20;;;11.20;;
63201;SDS011;49296;48.188;11.566;2023-04-19T01:57:34;19.95;;;12.52;;
63201;SDS011;49296;48.188;11.566;2023-04-19T02:00:00;17.98;;;11.43;;
63201;SDS011;49296;48.188;11.566;2023-04-19T02:02:28;20.50;;;13.07;;
63201;SDS011;49296;48.188;11.566;2023-04-19T02:04:54;19.70;;;12.57;;
63201;SDS011;49296;48.188;11.566;2023-04-19T02:07:22;22.40;;;13.65;;
63201;SDS011;49296;48.188;11.566;2023-04-19T02:09:49;19.30;;;12.85;;
63201;SDS011;49296;48.188;11.566;2023-04-19T02:12:15;19.20;;;13.07;;
63201;SDS011;49296;48.188;11.566;2023-04-19T02:14:43;21.00;;;13.10;;
63201;SDS011;49296;48.188;11.566;2023-04-19T02:17:10;20.80;;;13.38;;
63201;SDS011;49296;48.188;11.566;2023-04-19T02:19:37;19.50;;;12.68;;
63201;SDS011;49296;48.188;11.566;2023-04-19T02:22:04;23.67;;;14.45;;
63201;SDS011;49296;48.188;11.566;2023-04-19T02:24:30;23.15;;;14.35;;
63201;SDS011;49296;48.188;11.566;2023-04-19T02:26:57;20.70;;;13.38;;
63201;SDS011;49296;48.188;11.566;2023-04-19T02:29:24;23.30;;;14.88;;
63201;SDS011;49296;48.188;11.566;2023-04-19T02:31:52;23.40;;;14.32;;
63201;SDS011;49296;48.188;11.566;2023-04-19T02:34:19;22.33;;;14.57;;
63201;SDS011;49296;48.188;11.566;2023-04-19T02:36:45;24.80;;;16.10;;
63201;SDS011;49296;48.188;11.566;2023-04-19T02:39:12;22.38;;;13.43;;
63201;SDS011;49296;48.188;11.566;2023-04-19T02:41:39;22.70;;;15.00;;
63201;SDS011;49296;48.188;11.566;2023-04-19T02:44:06;23.73;;;14.98;;
63201;SDS011;49296;48.188;11.566;2023-04-19T02:46:33;22.98;;;14.52;;
63201;SDS011;49296;48.188;11.566;2023-04-19T02:49:01;24.10;;;15.00;;
63201;SDS011;49296;48.188;11.566;2023-04-19T02:51:28;23.42;;;14.80;;
63201;SDS011;49296;48.188;11.566;2023-04-19T02:53:55;25.02;;;15.25;;
63201;SDS011;49296;48.188;11.566;2023-04-19T02:56:21;26.23;;;15.82;;
63201;SDS011;49296;48.188;11.566;2023-04-19T02:58:48;25.08;;;16.05;;
63201;SDS011;49296;48.188;11.566;2023-04-19T03:01:15;26.17;;;16.63;;
63201;SDS011;49296;48.188;11.566;2023-04-19T03:03:42;26.58;;;15.98;;
63201;SDS011;49296;48.188;11.566;2023-04-19T03:06:10;26.30;;;16.05;;
63201;SDS011;49296;48.188;11.566;2023-04-19T03:08:36;24.52;;;15.35;;
63201;SDS011;49296;48.188;11.566;2023-04-19T03:11:04;23.75;;;15.60;;
63201;SDS011;49296;48.188;11.566;2023-04-19T03:13:30;23.05;;;15.20;;
63201;SDS011;49296;48.188;11.566;2023-04-19T03:15:57;28.02;;;17.48;;
63201;SDS011;49296;48.188;11.566;2023-04-19T03:18:24;29.08;;;16.38;;
63201;SDS011;49296;48.188;11.566;2023-04-19T03:20:50;26.73;;;15.95;;
63201;SDS011;49296;48.188;11.566;2023-04-19T03:23:19;25.05;;;15.88;;
63201;SDS011;49296;48.188;11.566;2023-04-19T03:25:46;30.30;;;16.88;;
63201;SDS011;49296;48.188;11.566;2023-04-19T03:28:13;28.05;;;16.13;;
63201;SDS011;49296;48.188;11.566;2023-04-19T03:30:39;26.08;;;16.23;;
63201;SDS011;49296;48.188;11.566;2023-04-19T03:33:06;27.77;;;17.00;;
63201;SDS011;49296;48.188;11.566;2023-04-19T03:35:33;27.13;;;16.42;;
63201;SDS011;49296;48.188;11.566;2023-04-19T03:37:59;25.63;;;15.55;;
63201;SDS011;49296;48.188;11.566;2023-04-19T03:40:29;26.75;;;16.52;;
63201;SDS011;49296;48.188;11.566;2023-04-19T03:42:56;27.17;;;16.70;;
63201;SDS011;49296;48.188;11.566;2023-04-19T03:45:22;27.40;;;17.67;;
63201;SDS011;49296;48.188;11.566;2023-04-19T03:47:49;25.73;;;15.18;;
63201;SDS011;49296;48.188;11.566;2023-04-19T03:50:16;24.40;;;15.73;;
63201;SDS011;49296;48.188;11.566;2023-04-19T03:52:42;25.73;;;16.70;;
63201;SDS011;49296;48.188;11.566;2023-04-19T03:55:09;27.05;;;16.20;;
63201;SDS011;49296;48.188;11.566;2023-04-19T03:57:39;24.77;;;15.38;;
63201;SDS011;49296;48.188;11.566;2023-04-19T04:00:06;25.25;;;15.02;;
63201;SDS011;49296;48.188;11.566;2023-04-19T04:02:35;24.95;;;15.82;;
63201;SDS011;49296;48.188;11.566;2023-04-19T04:05:03;30.23;;;17.38;;
63201;SDS011;49296;48.188;11.566;2023-04-19T04:07:30;26.70;;;16.48;;
63201;SDS011;49296;48.188;11.566;2023-04-19T04:09:56;28.45;;;16.65;;
63201;SDS011;49296;48.188;11.566;2023-04-19T04:12:23;28.60;;;16.77;;
63201;SDS011;49296;48.188;11.566;2023-04-19T04:14:51;25.45;;;16.05;;
63201;SDS011;49296;48.188;11.566;2023-04-19T04:17:18;26.33;;;16.58;;
63201;SDS011;49296;48.188;11.566;2023-04-19T04:19:45;26.83;;;16.45;;
63201;SDS011;49296;48.188;11.566;2023-04-19T04:22:11;26.75;;;16.58;;
63201;SDS011;49296;48.188;11.566;2023-04-19T04:24:39;25.27;;;16.60;;
63201;SDS011;49296;48.188;11.566;2023-04-19T04:27:06;29.27;;;16.58;;
63201;SDS011;49296;48.188;11.566;2023-04-19T04:29:34;29.27;;;17.00;;
63201;SDS011;49296;48.188;11.566;2023-04-19T04:32:02;27.20;;;16.90;;
63201;SDS011;49296;48.188;11.566;2023-04-19T04:34:29;27.75;;;16.80;;
63201;SDS011;49296;48.188;11.566;2023-04-19T04:36:57;27.80;;;17.08;;
63201;SDS011;49296;48.188;11.566;2023-04-19T04:39:23;26.33;;;15.68;;
63201;SDS011;49296;48.188;11.566;2023-04-19T04:41:50;28.88;;;17.35;;
63201;SDS011;49296;48.188;11.566;2023-04-19T04:44:17;25.17;;;15.55;;
63201;SDS011;49296;48.188;11.566;2023-04-19T04:46:44;26.85;;;17.02;;
63201;SDS011;49296;48.188;11.566;2023-04-19T04:49:13;28.30;;;16.90;;
63201;SDS011;49296;48.188;11.566;2023-04-19T04:51:39;25.55;;;15.65;;
63201;SDS011;49296;48.188;11.566;2023-04-19T04:54:06;28.33;;;16.42;;
63201;SDS011;49296;48.188;11.566;2023-04-19T04:56:33;27.13;;;17.08;;
63201;SDS011;49296;48.188;11.566;2023-04-19T04:58:59;27.02;;;16.45;;
63201;SDS011;49296;48.188;11.566;2023-04-19T05:01:26;26.20;;;15.63;;
63201;SDS011;49296;48.188;11.566;2023-04-19T05:03:53;27.20;;;16.02;;
63201;SDS011;49296;48.188;11.566;2023-04-19T05:06:21;27.65;;;16.15;;
63201;SDS011;49296;48.188;11.566;2023-04-19T05:08:48;26.30;;;16.38;;
63201;SDS011;49296;48.188;11.566;2023-04-19T05:11:14;27.05;;;16.48;;
63201;SDS011;49296;48.188;11.566;2023-04-19T05:13:41;25.98;;;15.93;;
63201;SDS011;49296;48.188;11.566;2023-04-19T05:16:08;25.50;;;15.65;;
63201;SDS011;49296;48.188;11.566;2023-04-19T05:18:35;26.42;;;15.30;;
63201;SDS011;49296;48.188;11.566;2023-04-19T05:21:01;25.83;;;14.68;;
63201;SDS011;49296;48.188;11.566;2023-04-19T05:23:30;28.35;;;14.90;;
63201;SDS011;49296;48.188;11.566;2023-04-19T05:25:57;26.63;;;15.52;;
63201;SDS011;49296;48.188;11.566;2023-04-19T05:28:23;28.65;;;16.60;;
63201;SDS011;49296;48.188;11.566;2023-04-19T05:30:50;28.10;;;15.68;;
63201;SDS011;49296;48.188;11.566;2023-04-19T05:33:17;25.70;;;15.15;;
63201;SDS011;49296;48.188;11.566;2023-04-19T05:35:44;26.52;;;15.88;;
63201;SDS011;49296;48.188;11.566;2023-04-19T05:38:11;26.63;;;15.93;;
63201;SDS011;49296;48.188;11.566;2023-04-19T05:40:39;26.85;;;16.30;;
63201;SDS011;49296;48.188;11.566;2023-04-19T05:43:06;26.30;;;15.38;;
63201;SDS011;49296;48.188;11.566;2023-04-19T05:45:32;23.70;;;14.23;;
63201;SDS011;49296;48.188;11.566;2023-04-19T05:47:59;27.55;;;15.55;;
63201;SDS011;49296;48.188;11.566;2023-04-19T05:50:26;27.08;;;15.68;;
63201;SDS011;49296;48.188;11.566;2023-04-19T05:52:53;25.77;;;16.15;;
63201;SDS011;49296;48.188;11.566;2023-04-19T05:55:20;26.73;;;16.00;;
63201;SDS011;49296;48.188;11.566;2023-04-19T05:57:48;26.40;;;15.63;;
63201;SDS011;49296;48.188;11.566;2023-04-19T06:00:15;25.77;;;14.88;;
63201;SDS011;49296;48.188;11.566;2023-04-19T06:02:43;31.13;;;16.70;;
63201;SDS011;49296;48.188;11.566;2023-04-19T06:05:10;26.85;;;15.55;;
63201;SDS011;49296;48.188;11.566;2023-04-19T06:07:36;27.33;;;14.52;;
63201;SDS011;49296;48.188;11.566;2023-04-19T06:10:03;28.35;;;15.38;;
63201;SDS011;49296;48.188;11.566;2023-04-19T06:12:31;26.17;;;15.10;;
63201;SDS011;49296;48.188;11.566;2023-04-19T06:14:59;27.73;;;14.77;;
63201;SDS011;49296;48.188;11.566;2023-04-19T06:17:26;29.75;;;16.05;;
63201;SDS011;49296;48.188;11.566;2023-04-19T06:19:53;27.10;;;14.80;;
63201;SDS011;49296;48.188;11.566;2023-04-19T06:22:20;28.00;;;15.50;;
63201;SDS011;49296;48.188;11.566;2023-04-19T06:24:47;25.08;;;14.77;;
63201;SDS011;49296;48.188;11.566;2023-04-19T06:27:14;27.42;;;15.38;;
63201;SDS011;49296;48.188;11.566;2023-04-19T06:29:42;27.85;;;16.00;;
63201;SDS011;49296;48.188;11.566;2023-04-19T06:32:10;26.83;;;15.85;;
63201;SDS011;49296;48.188;11.566;2023-04-19T06:34:37;28.25;;;15.00;;
63201;SDS011;49296;48.188;11.566;2023-04-19T06:37:03;30.05;;;14.93;;
63201;SDS011;49296;48.188;11.566;2023-04-19T06:39:30;30.58;;;16.52;;
63201;SDS011;49296;48.188;11.566;2023-04-19T06:41:57;28.00;;;15.15;;
63201;SDS011;49296;48.188;11.566;2023-04-19T06:44:24;26.42;;;16.65;;
63201;SDS011;49296;48.188;11.566;2023-04-19T06:46:50;27.88;;;15.20;;
63201;SDS011;49296;48.188;11.566;2023-04-19T06:49:19;28.27;;;14.52;;
63201;SDS011;49296;48.188;11.566;2023-04-19T06:51:46;26.42;;;15.23;;
63201;SDS011;49296;48.188;11.566;2023-04-19T06:54:14;25.80;;;15.20;;
63201;SDS011;49296;48.188;11.566;2023-04-19T06:56:41;29.52;;;14.95;;
63201;SDS011;49296;48.188;11.566;2023-04-19T06:59:11;26.87;;;15.03;;
63201;SDS011;49296;48.188;11.566;2023-04-19T07:01:38;27.63;;;14.82;;
63201;SDS011;49296;48.188;11.566;2023-04-19T07:04:05;28.17;;;16.38;;
63201;SDS011;49296;48.188;11.566;2023-04-19T07:06:34;30.20;;;16.33;;
63201;SDS011;49296;48.188;11.566;2023-04-19T07:09:02;28.83;;;15.68;;
63201;SDS011;49296;48.188;11.566;2023-04-19T07:11:29;24.50;;;14.35;;
63201;SDS011;49296;48.188;11.566;2023-04-19T07:13:56;26.13;;;14.95;;
63201;SDS011;49296;48.188;11.566;2023-04-19T07:16:23;28.85;;;15.63;;
63201;SDS011;49296;48.188;11.566;2023-04-19T07:18:51;29.20;;;14.35;;
63201;SDS011;49296;48.188;11.566;2023-04-19T07:21:18;27.27;;;15.65;;
63201;SDS011;49296;48.188;11.566;2023-04-19T07:23:46;26.60;;;15.25;;
63201;SDS011;49296;48.188;11.566;2023-04-19T07:26:13;25.60;;;14.90;;
63201;SDS011;49296;48.188;11.566;2023-04-19T07:28:40;30.45;;;15.85;;
63201;SDS011;49296;48.188;11.566;2023-04-19T07:31:06;26.88;;;14.60;;
63201;SDS011;49296;48.188;11.566;2023-04-19T07:33:33;27.58;;;16.00;;
63201;SDS011;49296;48.188;11.566;2023-04-19T07:36:00;27.58;;;14.60;;
63201;SDS011;49296;48.188;11.566;2023-04-19T07:38:27;27.77;;;15.15;;
63201;SDS011;49296;48.188;11.566;2023-04-19T07:40:55;30.42;;;15.25;;
63201;SDS011;49296;48.188;11.566;2023-04-19T07:43:22;26.38;;;14.77;;
63201;SDS011;49296;48.188;11.566;2023-04-19T07:45:49;26.10;;;14.48;;
63201;SDS011;49296;48.188;11.566;2023-04-19T07:48:15;40.92;;;16.45;;
63201;SDS011;49296;48.188;11.566;2023-04-19T07:50:42;26.15;;;15.07;;
63201;SDS011;49296;48.188;11.566;2023-04-19T07:53:09;29.85;;;15.50;;
63201;SDS011;49296;48.188;11.566;2023-04-19T07:55:36;27.95;;;15.07;;
63201;SDS011;49296;48.188;11.566;2023-04-19T07:58:04;26.45;;;14.32;;
63201;SDS011;49296;48.188;11.566;2023-04-19T08:00:31;28.15;;;14.95;;
63201;SDS011;49296;48.188;11.566;2023-04-19T08:02:59;28.45;;;16.23;;
63201;SDS011;49296;48.188;11.566;2023-04-19T08:05:25;27.30;;;15.20;;
63201;SDS011;49296;48.188;11.566;2023-04-19T08:07:52;26.85;;;15.70;;
63201;SDS011;49296;48.188;11.566;2023-04-19T08:10:19;37.03;;;15.63;;
63201;SDS011;49296;48.188;11.566;2023-04-19T08:12:46;35.05;;;16.13;;
63201;SDS011;49296;48.188;11.566;2023-04-19T08:15:15;34.03;;;16.40;;
63201;SDS011;49296;48.188;11.566;2023-04-19T08:17:41;24.55;;;14.63;;
63201;SDS011;49296;48.188;11.566;2023-04-19T08:20:09;29.25;;;14.40;;
63201;SDS011;49296;48.188;11.566;2023-04-19T08:22:37;26.90;;;15.00;;
63201;SDS011;49296;48.188;11.566;2023-04-19T08:25:05;27.58;;;15.23;;
63201;SDS011;49296;48.188;11.566;2023-04-19T08:27:34;27.00;;;15.05;;
63201;SDS011;49296;48.188;11.566;2023-04-19T08:30:01;29.45;;;15.50;;
63201;SDS011;49296;48.188;11.566;2023-04-19T08:32:29;27.42;;;15.68;;
63201;SDS011;49296;48.188;11.566;2023-04-19T08:34:56;25.83;;;14.27;;
63201;SDS011;49296;48.188;11.566;2023-04-19T08:37:25;24.92;;;14.40;;
63201;SDS011;49296;48.188;11.566;2023-04-19T08:39:51;25.92;;;14.10;;
63201;SDS011;49296;48.188;11.566;2023-04-19T08:42:18;27.23;;;14.85;;
63201;SDS011;49296;48.188;11.566;2023-04-19T08:44:45;25.40;;;14.80;;
63201;SDS011;49296;48.188;11.566;2023-04-19T08:47:12;27.50;;;14.90;;
63201;SDS011;49296;48.188;11.566;2023-04-19T08:49:42;25.67;;;15.00;;
63201;SDS011;49296;48.188;11.566;2023-04-19T08:52:11;25.13;;;15.30;;
63201;SDS011;49296;48.188;11.566;2023-04-19T08:54:38;26.30;;;14.20;;
63201;SDS011;49296;48.188;11.566;2023-04-19T08:57:06;25.65;;;15.40;;
63201;SDS011;49296;48.188;11.566;2023-04-19T08:59:34;32.33;;;15.05;;
63201;SDS011;49296;48.188;11.566;2023-04-19T09:02:01;27.38;;;15.82;;
63201;SDS011;49296;48.188;11.566;2023-04-19T09:04:28;24.08;;;13.90;;
63201;SDS011;49296;48.188;11.566;2023-04-19T09:06:56;27.02;;;15.90;;
63201;SDS011;49296;48.188;11.566;2023-04-19T09:09:23;25.48;;;15.02;;
63201;SDS011;49296;48.188;11.566;2023-04-19T09:11:51;26.38;;;15.60;;
63201;SDS011;49296;48.188;11.566;2023-04-19T09:14:19;27.52;;;16.60;;
63201;SDS011;49296;48.188;11.566;2023-04-19T09:16:47;27.63;;;15.73;;
63201;SDS011;49296;48.188;11.566;2023-04-19T09:19:16;29.48;;;16.75;;
63201;SDS011;49296;48.188;11.566;2023-04-19T09:21:43;25.65;;;15.77;;
63201;SDS011;49296;48.188;11.566;2023-04-19T09:24:11;25.35;;;14.95;;
63201;SDS011;49296;48.188;11.566;2023-04-19T09:26:38;22.52;;;14.68;;
63201;SDS011;49296;48.188;11.566;2023-04-19T09:29:18;24.42;;;15.40;;
63201;SDS011;49296;48.188;11.566;2023-04-19T09:31:55;26.45;;;13.82;;
63201;SDS011;49296;48.188;11.566;2023-04-19T09:34:23;22.33;;;13.57;;
63201;SDS011;49296;48.188;11.566;2023-04-19T09:36:52;24.23;;;13.23;;
63201;SDS011;49296;48.188;11.566;2023-04-19T09:39:31;22.13;;;13.27;;
63201;SDS011;49296;48.188;11.566;2023-04-19T09:42:00;21.07;;;13.30;;
63201;SDS011;49296;48.188;11.566;2023-04-19T09:44:27;23.45;;;13.80;;
63201;SDS011;49296;48.188;11.566;2023-04-19T09:46:54;24.25;;;14.30;;
63201;SDS011;49296;48.188;11.566;2023-04-19T09:49:21;25.00;;;14.85;;
63201;SDS011;49296;48.188;11.566;2023-04-19T09:51:49;24.35;;;13.88;;
63201;SDS011;49296;48.188;11.566;2023-04-19T09:54:17;26.63;;;16.08;;
63201;SDS011;49296;48.188;11.566;2023-04-19T09:56:46;25.75;;;15.68;;
63201;SDS011;49296;48.188;11.566;2023-04-19T09:59:13;29.95;;;17.75;;
63201;SDS011;49296;48.188;11.566;2023-04-19T10:01:41;26.58;;;15.07;;
63201;SDS011;49296;48.188;11.566;2023-04-19T10:04:09;24.58;;;15.10;;
63201;SDS011;49296;48.188;11.566;2023-04-19T10:06:37;23.55;;;15.32;;
63201;SDS011;49296;48.188;11.566;2023-04-19T10:09:05;25.92;;;15.27;;
63201;SDS011;49296;48.188;11.566;2023-04-19T10:11:33;23.02;;;14.25;;
63201;SDS011;49296;48.188;11.566;2023-04-19T10:14:05;24.80;;;14.75;;
63201;SDS011;49296;48.188;11.566;2023-04-19T10:16:33;23.88;;;14.13;;
63201;SDS011;49296;48.188;11.566;2023-04-19T10:19:01;23.83;;;14.48;;
63201;SDS011;49296;48.188;11.566;2023-04-19T10:21:29;25.88;;;14.75;;
63201;SDS011;49296;48.188;11.566;2023-04-19T10:23:57;26.52;;;15.32;;
63201;SDS011;49296;48.188;11.566;2023-04-19T10:26:24;24.52;;;15.55;;
63201;SDS011;49296;48.188;11.566;2023-04-19T10:28:52;28.50;;;15.15;;
63201;SDS011;49296;48.188;11.566;2023-04-19T10:31:22;24.05;;;15.30;;
63201;SDS011;49296;48.188;11.566;2023-04-19T10:33:51;25.13;;;14.85;;
63201;SDS011;49296;48.188;11.566;2023-04-19T10:36:18;28.38;;;15.80;;
63201;SDS011;49296;48.188;11.566;2023-04-19T10:38:46;24.05;;;13.55;;
63201;SDS011;49296;48.188;11.566;2023-04-19T10:41:16;26.88;;;14.90;;
63201;SDS011;49296;48.188;11.566;2023-04-19T10:43:44;24.00;;;13.98;;
63201;SDS011;49296;48.188;11.566;2023-04-19T10:46:13;23.63;;;14.07;;
63201;SDS011;49296;48.188;11.566;2023-04-19T10:48:50;25.58;;;13.68;;
63201;SDS011;49296;48.188;11.566;2023-04-19T10:51:19;23.35;;;12.98;;
63201;SDS011;49296;48.188;11.566;2023-04-19T10:53:51;20.85;;;12.07;;
63201;SDS011;49296;48.188;11.566;2023-04-19T10:56:20;23.05;;;12.55;;
63201;SDS011;49296;48.188;11.566;2023-04-19T11:01:47;22.55;;;14.07;;
63201;SDS011;49296;48.188;11.566;2023-04-19T11:04:17;25.65;;;14.45;;
63201;SDS011;49296;48.188;11.566;2023-04-19T11:07:00;24.20;;;13.90;;
63201;SDS011;49296;48.188;11.566;2023-04-19T11:09:29;21.67;;;12.73;;
63201;SDS011;49296;48.188;11.566;2023-04-19T11:11:59;25.52;;;14.05;;
63201;SDS011;49296;48.188;11.566;2023-04-19T11:14:31;23.27;;;13.60;;
63201;SDS011;49296;48.188;11.566;2023-04-19T11:16:59;20.73;;;13.18;;
63201;SDS011;49296;48.188;11.566;2023-04-19T11:19:29;22.55;;;13.45;;
63201;SDS011;49296;48.188;11.566;2023-04-19T11:21:57;23.95;;;14.35;;
63201;SDS011;49296;48.188;11.566;2023-04-19T11:24:25;23.25;;;14.18;;
63201;SDS011;49296;48.188;11.566;2023-04-19T11:26:51;21.85;;;13.93;;
63201;SDS011;49296;48.188;11.566;2023-04-19T11:29:20;22.90;;;15.02;;
63201;SDS011;49296;48.188;11.566;2023-04-19T11:31:47;25.58;;;16.83;;
63201;SDS011;49296;48.188;11.566;2023-04-19T11:34:14;27.42;;;15.73;;
63201;SDS011;49296;48.188;11.566;2023-04-19T11:36:51;26.05;;;14.95;;
63201;SDS011;49296;48.188;11.566;2023-04-19T11:39:18;22.63;;;13.13;;
63201;SDS011;49296;48.188;11.566;2023-04-19T11:41:45;27.73;;;15.55;;
63201;SDS011;49296;48.188;11.566;2023-04-19T11:44:12;25.75;;;15.82;;
63201;SDS011;49296;48.188;11.566;2023-04-19T11:46:40;27.15;;;15.88;;
63201;SDS011;49296;48.188;11.566;2023-04-19T11:49:07;28.13;;;16.83;;
63201;SDS011;49296;48.188;11.566;2023-04-19T11:51:33;27.10;;;16.20;;
63201;SDS011;49296;48.188;11.566;2023-04-19T11:54:01;31.65;;;17.20;;
63201;SDS011;49296;48.188;11.566;2023-04-19T11:59:23;31.15;;;17.40;;
63201;SDS011;49296;48.188;11.566;2023-04-19T12:01:50;29.35;;;15.95;;
63201;SDS011;49296;48.188;11.566;2023-04-19T12:04:16;30.98;;;18.17;;
63201;SDS011;49296;48.188;11.566;2023-04-19T12:06:44;32.85;;;17.77;;
63201;SDS011;49296;48.188;11.566;2023-04-19T12:09:12;30.58;;;17.77;;
63201;SDS011;49296;48.188;11.566;2023-04-19T12:11:43;32.08;;;17.60;;
63201;SDS011;49296;48.188;11.566;2023-04-19T12:14:10;29.50;;;17.52;;
63201;SDS011;49296;48.188;11.566;2023-04-19T12:16:38;30.80;;;17.38;;
63201;SDS011;49296;48.188;11.566;2023-04-19T12:19:09;32.72;;;17.90;;
63201;SDS011;49296;48.188;11.566;2023-04-19T12:21:37;34.33;;;18.67;;
63201;SDS011;49296;48.188;11.566;2023-04-19T12:24:05;33.00;;;17.90;;
63201;SDS011;49296;48.188;11.566;2023-04-19T12:26:33;28.23;;;16.65;;
63201;SDS011;49296;48.188;11.566;2023-04-19T12:29:02;29.95;;;15.48;;
63201;SDS011;49296;48.188;11.566;2023-04-19T12:31:30;26.00;;;14.93;;
63201;SDS011;49296;48.188;11.566;2023-04-19T12:33:57;23.00;;;12.85;;
63201;SDS011;49296;48.188;11.566;2023-04-19T12:36:24;18.92;;;11.18;;
63201;SDS011;49296;48.188;11.566;2023-04-19T12:38:51;16.88;;;10.10;;
63201;SDS011;49296;48.188;11.566;2023-04-19T12:41:18;17.55;;;10.85;;
63201;SDS011;49296;48.188;11.566;2023-04-19T12:43:46;19.17;;;10.68;;
63201;SDS011;49296;48.188;11.566;2023-04-19T12:46:13;17.67;;;10.10;;
63201;SDS011;49296;48.188;11.566;2023-04-19T12:48:39;14.48;;;8.85;;
63201;SDS011;49296;48.188;11.566;2023-04-19T12:51:06;15.35;;;9.15;;
63201;SDS011;49296;48.188;11.566;2023-04-19T12:53:33;13.73;;;8.43;;
63201;SDS011;49296;48.188;11.566;2023-04-19T12:56:00;15.75;;;9.05;;
63201;SDS011;49296;48.188;11.566;2023-04-19T12:58:27;14.70;;;8.02;;
63201;SDS011;49296;48.188;11.566;2023-04-19T13:00:55;15.35;;;7.93;;
63201;SDS011;49296;48.188;11.566;2023-04-19T13:03:21;15.18;;;8.07;;
63201;SDS011;49296;48.188;11.566;2023-04-19T13:05:48;13.27;;;8.38;;
63201;SDS011;49296;48.188;11.566;2023-04-19T13:08:15;14.23;;;8.57;;
63201;SDS011;49296;48.188;11.566;2023-04-19T13:10:45;14.70;;;8.63;;
63201;SDS011;49296;48.188;11.566;2023-04-19T13:13:11;13.00;;;7.97;;
63201;SDS011;49296;48.188;11.566;2023-04-19T13:15:38;15.60;;;8.82;;
63201;SDS011;49296;48.188;11.566;2023-04-19T13:18:07;22.30;;;11.25;;
63201;SDS011;49296;48.188;11.566;2023-04-19T13:20:34;13.85;;;7.72;;
63201;SDS011;49296;48.188;11.566;2023-04-19T13:23:00;14.88;;;8.40;;
63201;SDS011;49296;48.188;11.566;2023-04-19T13:25:27;12.85;;;7.55;;
63201;SDS011;49296;48.188;11.566;2023-04-19T13:27:54;11.68;;;6.93;;
63201;SDS011;49296;48.188;11.566;2023-04-19T13:30:20;12.80;;;6.75;;
63201;SDS011;49296;48.188;11.566;2023-04-19T13:32:47;10.48;;;6.45;;
63201;SDS011;49296;48.188;11.566;2023-04-19T13:35:15;10.13;;;6.00;;
63201;SDS011;49296;48.188;11.566;2023-04-19T13:37:42;10.25;;;6.43;;
63201;SDS011;49296;48.188;11.566;2023-04-19T13:40:11;8.18;;;5.30;;
63201;SDS011;49296;48.188;11.566;2023-04-19T13:42:38;10.52;;;5.38;;
63201;SDS011;49296;48.188;11.566;2023-04-19T13:45:05;10.35;;;6.50;;
63201;SDS011;49296;48.188;11.566;2023-04-19T13:47:32;10.52;;;6.10;;
63201;SDS011;49296;48.188;11.566;2023-04-19T13:49:59;12.95;;;7.47;;
63201;SDS011;49296;48.188;11.566;2023-04-19T13:52:27;10.68;;;6.43;;
63201;SDS011;49296;48.188;11.566;2023-04-19T13:54:54;8.70;;;5.55;;
63201;SDS011;49296;48.188;11.566;2023-04-19T13:57:20;9.63;;;5.70;;
63201;SDS011;49296;48.188;11.566;2023-04-19T13:59:47;9.80;;;5.57;;
63201;SDS011;49296;48.188;11.566;2023-04-19T14:02:14;8.02;;;4.60;;
63201;SDS011;49296;48.188;11.566;2023-04-19T14:04:40;7.70;;;4.07;;
63201;SDS011;49296;48.188;11.566;2023-04-19T14:07:07;5.78;;;2.80;;
63201;SDS011;49296;48.188;11.566;2023-04-19T14:09:35;6.50;;;3.35;;
63201;SDS011;49296;48.188;11.566;2023-04-19T14:12:02;5.90;;;3.80;;
63201;SDS011;49296;48.188;11.566;2023-04-19T14:14:29;5.93;;;2.83;;
63201;SDS011;49296;48.188;11.566;2023-04-19T14:16:56;6.40;;;3.20;;
63201;SDS011;49296;48.188;11.566;2023-04-19T14:19:25;6.30;;;3.08;;